Sonic Adventure (DX): Overall Rankings

Records: Times | Rings | Scores | Races | Bosses | Freestyle
Leaders: Times | Rings | Scores | Races | Bosses | Freestyle | Overall
Rank Player Percent Points Date
1 Sonicspeedruner 98.4% 260 08-04-15
2 DarkPolarNight 96.1% 630 08-04-15
3 Gamepro011 94.5% 901 08-04-15
4 Jawzun 93.8% 1016 08-04-15
5 Dashjump 91.6% 1372 08-04-15
6 DarkspinesSonic 90.6% 1530 08-04-15
7 Avento128bits 90.2% 1603 08-04-15
8 ike6252 90.0% 1629 08-04-15
9 F-Man 88.3% 1916 08-04-15
10 HyperSonic7701 85.0% 2458 08-04-15
11 Coolfansonic 83.8% 2645 08-04-15
12 yoshifan 83.4% 2716 08-04-15
13 frankoredstrato 82.9% 2792 08-04-15
14 TheRealShadnic 82.0% 2943 08-04-15
15 francisco 81.9% 2957 08-04-15
16 Marth 81.6% 3007 08-04-15
17 InferSaime 80.3% 3219 08-04-15
18 PfoSonic 79.9% 3287 08-04-15
19 Paragod 79.5% 3363 08-04-15
20 THC98 78.3% 3553 08-04-15
21 Stefan 76.2% 3902 08-04-15
22 RPGnutter 73.9% 4269 08-04-15
23 bertin 73.8% 4284 08-04-15
24 sonicam 71.6% 4650 08-04-15
25 Combo 65.6% 5639 08-04-15
26 drminus 65.0% 5738 08-04-15
27 SkyLights 64.3% 5843 08-04-15
28 xXMegaManXx 63.6% 5972 08-04-15
29 Diamond 62.7% 6107 08-04-15
30 OmegaDJ 60.3% 6513 08-04-15
31 GerbilSoft 60.2% 6517 08-04-15
32 Auriman1 60.2% 6530 08-04-15
33 magnum12 59.2% 6679 08-04-15
34 Dawid8404 59.1% 6702 08-04-15
35 Thorn 57.2% 7020 08-04-15
36 P1 Pause 56.9% 7060 08-04-15
37 mike89 55.8% 7252 08-04-15
38 chainchumper 54.1% 7525 08-04-15
39 Dave Cramer 53.9% 7562 08-04-15
40 Groudon199 53.8% 7566 08-04-15
41 Parax 53.2% 7664 08-04-15
42 Shadow Jacky 52.7% 7757 08-04-15
43 Psymar 47.5% 8600 08-04-15
44 Chao_Fan 45.8% 8891 08-04-15
45 Arch 45.5% 8938 08-04-15
46 mauserman 45.3% 8960 08-04-15
47 Quartz 44.6% 9079 08-04-15
48 teamblackarms 43.6% 9243 08-04-15
49 Psyknux 43.5% 9257 08-04-15
50 James_Bertolli 42.9% 9367 08-04-15
51 NintenDan 42.4% 9449 08-04-15
52 Webber3000 41.8% 9549 08-04-15
53 Turbos 41.7% 9566 08-04-15
54 Fr3nZy 41.6% 9569 08-04-15
55 Ring Rush 41.6% 9570 08-04-15
56 Cream147 41.3% 9622 08-04-15
57 videogamemaster777 41.2% 9647 08-04-15
58 Siavash Tazari 40.9% 9693 08-04-15
59 buddychaos0415 40.5% 9753 08-04-15
60 SadisticMystic 39.9% 9854 08-04-15
61 eggFL 39.0% 10008 08-04-15
62 Redd 38.7% 10049 08-04-15
63 SB737 37.4% 10269 08-04-15
64 supersonicfan 36.2% 10459 08-04-15
65 FuzZerd 35.2% 10620 08-04-15
66 elecmouse101 34.4% 10749 08-04-15
67 supersonic465 34.3% 10778 08-04-15
68 Austinf 33.6% 10880 08-04-15
69 metanightmare22 32.9% 11010 08-04-15
70 Aitamen 32.8% 11022 08-04-15
71 dabestgamer 32.6% 11058 08-04-15
72 MiStEr_ShAoLiN 32.5% 11061 08-04-15
73 Cyan Ryan 32.5% 11070 08-04-15
74 itsPersonnal 31.7% 11194 08-04-15
75 Cybrax 31.0% 11309 08-04-15
76 Andrea Ritsu 30.6% 11377 08-04-15
77 danieldude 30.4% 11407 08-04-15
78 SilvertheAlmighty 30.4% 11410 08-04-15
79 VMU Player Banned 28.8% 11670 08-04-15
80 Omega Rafael Santos 28.5% 11727 08-04-15
81 Staf 28.1% 11794 08-04-15
82 The T 27.8% 11834 08-04-15
83 EngiNerd 27.5% 11894 08-04-15
84 lordmetalsonic 26.8% 12001 08-04-15
85 Hipertails12 26.7% 12013 08-04-15
86 GreatStar 26.3% 12093 08-04-15
87 welldooder64 26.2% 12098 08-04-15
88 Sondow 26.1% 12124 08-04-15
89 Mastakirby 25.8% 12160 08-04-15
90 The Great Lord Mick 25.8% 12161 08-04-15
91 LinksDarkArrows 25.6% 12194 08-04-15
92 Nimrod 25.5% 12209 08-04-15
93 Skylace 24.8% 12335 08-04-15
94 Rolken 23.3% 12584 08-04-15
95 Xia 21.7% 12833 08-04-15
96 a_moustache 21.7% 12838 08-04-15
97 Kogen Player Banned 21.6% 12860 08-04-15
98 Spinballwizard 21.5% 12874 08-04-15
99 Don 21.3% 12899 08-04-15
100 Miles9999 21.2% 12927 08-04-15
101 Cutiefox 21.1% 12934 08-04-15
102 Game_Complete 21.1% 12942 08-04-15
103 f0rever_zer0 21.1% 12944 08-04-15
104 andres430 20.3% 13065 08-04-15
105 Cruizer 20.2% 13079 08-04-15
106 iSonicKid2K 20.0% 13126 08-04-15
107 SADXTryHard 19.8% 13155 08-04-15
108 GarnetPrincess 19.3% 13236 08-04-15
109 AxlThunder 18.7% 13328 08-04-15
110 knuckles_sonic8 18.7% 13333 08-04-15
111 Team_Yoshi 18.2% 13416 08-04-15
112 KinkyCadence 18.0% 13441 08-04-15
113 The Knuckles Chao 17.9% 13464 08-04-15
114 Termon 17.7% 13489 08-04-15
115 FoxBoy 17.6% 13505 08-04-15
116 LittleBigness 17.6% 13518 08-04-15
117 SonicWinDX 17.4% 13545 08-04-15
118 Sonic Singularity 15.5% 13858 08-04-15
119 Pokemonmaster888 15.5% 13863 08-04-15
120 Drakodan 14.4% 14036 08-04-15
121 BigAL49 14.4% 14040 08-04-15
122 SilverSonic 14.3% 14056 08-04-15
123 MPit08 14.1% 14089 08-04-15
123 WeegeeZV 14.1% 14089 08-04-15
125 Mo Player Banned 14.0% 14101 08-04-15
126 Cod4Scopes 13.4% 14199 08-04-15
126 Jerzia 13.4% 14199 08-04-15
128 HyperSonic64 13.2% 14234 08-04-15
129 booo95 13.1% 14252 08-04-15
130 Chawkk 13.0% 14262 08-04-15
131 paulie9990 13.0% 14271 08-04-15
132 Hunters13 12.9% 14278 08-04-15
133 SuperSonic101 12.9% 14280 08-04-15
134 Maxinfamily 12.7% 14323 08-04-15
135 Kanimayo_Jp 12.5% 14356 08-04-15
136 PsyBorg 12.4% 14361 08-04-15
137 Flying Fox 12.4% 14365 08-04-15
138 BrokenArthritis 12.3% 14384 08-04-15
139 LilZero 12.2% 14395 08-04-15
140 Therio 11.7% 14478 08-04-15
141 sonicspeed 11.6% 14505 08-04-15
142 douglas 11.4% 14522 08-04-15
143 Matt_TY 11.2% 14570 08-04-15
144 joecoolgames 10.5% 14671 08-04-15
145 Cooljay 10.5% 14680 08-04-15
146 SeaWolf 10.5% 14685 08-04-15
147 TFEC Headshot 9.9% 14777 08-04-15
148 welshmoose05 9.8% 14789 08-04-15
149 crazy1993 9.6% 14830 08-04-15
150 OddCook 9.5% 14835 08-04-15
151 Mcshuggets 9.5% 14841 08-04-15
152 videogamer1014 9.2% 14886 08-04-15
153 imazor017 9.2% 14888 08-04-15
154 nuckrieg 9.0% 14916 08-04-15
155 niscool 9.0% 14922 08-04-15
156 SonicAD 9.0% 14926 08-04-15
157 SirTobbii 8.8% 14955 08-04-15
158 Shadowthegreat 8.7% 14975 08-04-15
159 superjupi 8.7% 14976 08-04-15
160 SaviourDC 8.4% 15019 08-04-15
161 iarebored 8.4% 15020 08-04-15
162 sonamyfan666 8.3% 15037 08-04-15
163 Werey 8.3% 15045 08-04-15
164 SonicKnuckles 8.2% 15057 08-04-15
165 adf 7.9% 15107 08-04-15
166 ArcticDragon 7.8% 15114 08-04-15
167 Megaman EXE565 7.7% 15145 08-04-15
168 Platformer 7.4% 15186 08-04-15
169 Mariobutch 7.4% 15193 08-04-15
170 FocusSight64 7.3% 15203 08-04-15
171 Swift Hobo 7.2% 15225 08-04-15
172 wheatrich 7.2% 15226 08-04-15
173 timpkmn89 7.2% 15227 08-04-15
174 ethmar 7.1% 15237 08-04-15
175 Rickyman48 7.0% 15247 08-04-15
176 KitsuneYamaro 6.7% 15303 08-04-15
177 Triseena 6.6% 15318 08-04-15
178 CyberShadow 6.5% 15339 08-04-15
179 slade23 6.4% 15358 08-04-15
180 Starlight Sable 6.3% 15359 08-04-15
181 dShadow 6.3% 15367 08-04-15
182 IsisDazs 6.2% 15381 08-04-15
183 BlankTH 6.0% 15419 08-04-15
184 Monkeh 5.8% 15451 08-04-15
185 Richied 5.7% 15472 08-04-15
186 DaDude 5.6% 15483 08-04-15
187 SonicU260 5.6% 15489 08-04-15
188 sonicd5 5.5% 15500 08-04-15
189 Zip 5.4% 15517 08-04-15
190 Kirbymon30 5.1% 15566 08-04-15
191 tal39h 5.1% 15569 08-04-15
192 Drflash55 4.8% 15617 08-04-15
192 soniccoloursunleashed 4.8% 15617 08-04-15
194 Yish 4.7% 15632 08-04-15
195 neaolas 4.6% 15643 08-04-15
196 Bass 4.6% 15649 08-04-15
197 Sonicsuperstar1 4.5% 15657 08-04-15
198 UninspiredUsername 4.5% 15658 08-04-15
199 superiorsonic 4.5% 15662 08-04-15
200 zapp 4.5% 15669 08-04-15
201 gamefreak1292 4.4% 15679 08-04-15
202 Chaos_Overlord 4.1% 15732 08-04-15
203 TakaRikka 4.0% 15749 08-04-15
204 Valfore 3.9% 15757 08-04-15
205 ShinigamiMachine 3.8% 15776 08-04-15
206 Regano1000 3.7% 15794 08-04-15
207 MK 3.6% 15813 08-04-15
208 Ace747 3.5% 15825 08-04-15
209 Illidan 3.2% 15873 08-04-15
210 HHNNBBHHN 3.2% 15880 08-04-15
211 Venick409 3.1% 15886 08-04-15
212 Brian_pso 3.1% 15895 08-04-15
213 Sithwarrior26 3.0% 15904 08-04-15
214 TheChaosEmeraIds 2.9% 15924 08-04-15
215 ingx24 2.9% 15925 08-04-15
216 Nickson98 2.8% 15936 08-04-15
217 SkyBon 2.8% 15937 08-04-15
218 FSSRandomvids 2.8% 15947 08-04-15
219 Fozer 2.7% 15951 08-04-15
220 sonic29887 2.7% 15956 08-04-15
221 Colomb_30 2.7% 15965 08-04-15
222 TheUltraBlur 2.6% 15973 08-04-15
223 1stKirbyever 2.5% 15985 08-04-15
224 Th4tN1nj4Turtl3 2.3% 16017 08-04-15
225 Cort_pso 2.3% 16019 08-04-15
226 Doom-9 2.3% 16024 08-04-15
227 ieatatsonic 2.2% 16037 08-04-15
228 Mariosonic15 2.2% 16038 08-04-15
229 SonataSpinDash 2.2% 16044 08-04-15
230 SuperSonic71087 2.2% 16045 08-04-15
231 MStitomix 2.1% 16052 08-04-15
232 HermitHelmet 2.1% 16061 08-04-15
233 Artie 2.0% 16071 08-04-15
234 Got4n 2.0% 16072 08-04-15
235 Questionguy555 2.0% 16079 08-04-15
236 Jose_15 1.9% 16081 08-04-15
237 djmat 1.8% 16099 08-04-15
238 SuperSonicfan9595 1.8% 16102 08-04-15
239 sonicandamy 1.7% 16115 08-04-15
240 LancexExWx 1.7% 16124 08-04-15
241 Heroes_Hater 1.7% 16128 08-04-15
241 son1cgu1tar 1.7% 16128 08-04-15
243 Paixii 1.6% 16131 08-04-15
244 BallzeH 1.5% 16149 08-04-15
245 Jamixesa 1.5% 16156 08-04-15
245 Mankster101 1.5% 16156 08-04-15
247 Badlex727 1.5% 16158 08-04-15
248 BecauseWarAnvil 1.5% 16159 08-04-15
249 Crydio 1.5% 16162 08-04-15
250 RealProjectMVP1 PSN 1.4% 16169 08-04-15
250 Shanekilz 1.4% 16169 08-04-15
252 SpiritDragon1995 1.4% 16170 08-04-15
253 ReuelBrony 1.4% 16175 08-04-15
254 stanski 1.3% 16181 08-04-15
255 MarewBFN 1.3% 16186 08-04-15
256 Sonique Hedgehog 1.3% 16190 08-04-15
257 Blue Infamy 1.2% 16199 08-04-15
258 p0ker 1.2% 16200 08-04-15
259 ErrortheCucco 1.2% 16209 08-04-15
260 Arthas 1.2% 16212 08-04-15
260 Rikum22 1.2% 16212 08-04-15
262 sonic1001 1.1% 16220 08-04-15
263 WingedInsignia 1.1% 16223 08-04-15
264 syco1098 1.1% 16227 08-04-15
265 AJSIV 1.1% 16228 08-04-15
266 Sonic the Hedgehod16 1.0% 16231 08-04-15
267 sonicfan9 1.0% 16234 08-04-15
268 Calfd 1.0% 16239 08-04-15
269 BlackArmsShadow 0.9% 16248 08-04-15
270 themachoman202 0.9% 16252 08-04-15
271 Ben1502 0.9% 16258 08-04-15
272 Greham Adelphis 0.9% 16260 08-04-15
272 shadowblast63 Player Banned 0.9% 16260 08-04-15
274 Fivavoa 0.9% 16261 08-04-15
274 MastaToken 0.9% 16261 08-04-15
276 Mr. Jones 0.8% 16263 08-04-15
277 arcfx1985 0.8% 16265 08-04-15
277 darkstarblaze 0.8% 16265 08-04-15
279 ptorflaxendrosis 0.8% 16266 08-04-15
280 FlandreScarlet9999vr 0.8% 16270 08-04-15
280 Gvozdevik 0.8% 16270 08-04-15
280 Knuckles 0.8% 16270 08-04-15
283 Zeldocto 0.8% 16275 08-04-15
284 KaM Mark MaK 0.7% 16279 08-04-15
285 BeeAwwb 0.7% 16282 08-04-15
286 ShadouZaHejjihoggu 0.7% 16286 08-04-15
287 Sonic62 0.7% 16291 08-04-15
288 darkersupershadic 0.6% 16295 08-04-15
289 Sogeking 0.6% 16296 08-04-15
290 Shadygamerfreak 0.6% 16298 08-04-15
291 dragondragon18 0.6% 16299 08-04-15
292 SonicK100 0.6% 16300 08-04-15
293 Grady219 0.6% 16301 08-04-15
293 Sarger001 0.6% 16301 08-04-15
295 Jawaah 0.6% 16304 08-04-15
296 Antek 0.6% 16310 08-04-15
297 SilverK 0.5% 16311 08-04-15
298 Klaus 0.5% 16312 08-04-15
299 SpinDashMaster 0.5% 16315 08-04-15
300 BioShadow 0.5% 16317 08-04-15
301 Videogamer123 0.5% 16320 08-04-15
302 oTaiIilLsS 0.4% 16334 08-04-15
303 Egor305 0.4% 16335 08-04-15
304 Mad Andy 0.4% 16336 08-04-15
305 isaihtb11 0.4% 16337 08-04-15
306 OhNoes! 0.4% 16338 08-04-15
307 S-MS32X-S 0.4% 16340 08-04-15
307 zaktu40 0.4% 16340 08-04-15
309 gaara1234 0.4% 16343 08-04-15
310 gamed00d 0.3% 16345 08-04-15
311 Mister_Slick 0.3% 16353 08-04-15
312 Sonic06Fan 0.3% 16355 08-04-15
313 Rush Hero 0.3% 16357 08-04-15
314 Iwannabelink 0.2% 16361 08-04-15
314 SonicMega167 0.2% 16361 08-04-15
316 sonknuck23 0.2% 16366 08-04-15
317 DanielTheFalcon 0.2% 16371 08-04-15
317 gamer1245 0.2% 16371 08-04-15
319 Burningskull123 0.1% 16380 08-04-15
320 Sonicontherun 0.1% 16389 08-04-15
321 Lil_Dude 0.0% 16393 08-04-15
322 antiwwe 0.0% 16395 08-04-15
323 Cbwade15 0.0% 16399 08-04-15
323 Genuine Hedgehog 0.0% 16399 08-04-15
325 Tyrouble 0.0% 16402 08-04-15
326 MegabombBlade 0.0% 16409 08-04-15
326 neji_hyuuga 0.0% 16409 08-04-15
326 Over 0.0% 16409 08-04-15
326 sdj6707 Player Banned 0.0% 16409 08-04-15
326 Tran Sonic Fan Player Banned 0.0% 16409 08-04-15

This page is using the New Data Table System. [FUTURE]

Game ID: 3 | Category ID: 10
Hits: 3,293 | Hits This Month: 5 | DB Calls: 23 | Mem Usage: 5.45 MB | Time: 0.23s | Printable

The Sonic Center v3.9
Copyright 2003-2011 by The Sonic Center Team.